Alyeska Resort Wx Sites
Hourly Roundup from Summit Site
ALYSUM 12/4/2016
Click Here to View Graph!

        DATE  TIME   Air  Wind  Wind  Wind   Rel  BATT Solar
                    Temp   Spd   Dir  Gust  Hum%  Volt Watts
                      F   AVG   AVG   MAX   AVG   AVG    M

   12/4/2016 07:00    -4     1   137     3    89 12.59  0.00
   12/4/2016 06:00    -3     2   152     4    90 12.59  0.00
   12/4/2016 05:00    -3     1   128     4    90 12.59  0.00
   12/4/2016 04:00    -2     2   129     5    90 12.59  0.00
   12/4/2016 03:00    -1     2   124     6    91 12.59  0.00
   12/4/2016 02:00    -1     1   108     4    91 12.59  0.00
   12/4/2016 01:00    -2     2   112     5    91 12.59  0.00
   12/3/2016 24:00    -1     1   129     3    90 12.59  0.00
   12/3/2016 23:00     0     1   310     3    91 12.60  0.00
   12/3/2016 22:00     0     1   300     3    92 12.60  0.03
   12/3/2016 21:00     0     1   175     3    91 12.60  0.00
   12/3/2016 20:00    -1     3   136     7    91 12.60  0.00
   12/3/2016 19:00    -1     4   116     8    91 12.60  0.01
   12/3/2016 18:00    -1     8   126    10    92 12.61  0.04
   12/3/2016 17:00     0     7   127     9    92 12.61  0.26
   12/3/2016 16:00     1     4   139     9    92 12.66  3.69
   12/3/2016 15:00     0     5   123     9    92 12.73 12.62
   12/3/2016 14:00     1     5   146     9    92 12.78 15.57
   12/3/2016 13:00     1     6   155    11    92 12.78 18.89
   12/3/2016 12:00     0     3   128     7    92 12.74 16.95
   12/3/2016 11:00     0     5   126     9    92 12.66  8.19
   12/3/2016 10:00    -1     6   146    11    92 12.62  0.97
   12/3/2016 09:00     0     7   145    10    92 12.63  0.07
   12/3/2016 08:00    -1     4   131     8    92 12.63  0.04


Click Here to View Graph!